Time;durP1;ratioP1;P1;durP2;ratioP2;P2;SDS_P1;SDS_P2;PMS_P1;PMS_P2;Temp;Humidity;BMP_temperature;BMP_pressure;BME280_temperature;BME280_humidity;BME280_pressure;Samples;Min_cycle;Max_cycle;Signal;HPM_P1;HPM_P2
2022/02/27 00:00:20;;;;;;;;;14.00;14.00;;;;;;;;5045119;28;11611;-91
2022/02/27 00:02:49;;;;;;;;;11.50;11.00;;;;;;;;5044787;28;11606;-90
2022/02/27 00:05:17;;;;;;;;;15.75;13.75;;;;;;;;5041228;28;11603;-91
2022/02/27 00:07:44;;;;;;;;;13.25;9.00;;;;;;;;5038775;28;11607;-92
2022/02/27 00:10:12;;;;;;;;;10.50;8.75;;;;;;;;5044922;28;11564;-91
2022/02/27 00:12:39;;;;;;;;;12.50;7.50;;;;;;;;5046534;28;11550;-91
2022/02/27 00:15:07;;;;;;;;;5.75;5.75;;;;;;;;5053455;28;11721;-88
2022/02/27 00:17:38;;;;;;;;;8.00;8.00;;;;;;;;5045297;28;12147;-90
2022/02/27 00:20:09;;;;;;;;;5.25;5.25;;;;;;;;5039167;28;11619;-88
2022/02/27 00:22:37;;;;;;;;;11.75;11.50;;;;;;;;5045685;28;11599;-91
2022/02/27 00:25:05;;;;;;;;;7.25;7.25;;;;;;;;5045201;28;11640;-89
2022/02/27 00:27:32;;;;;;;;;9.50;9.50;;;;;;;;5045538;28;11557;-90
2022/02/27 00:30:00;;;;;;;;;8.50;5.75;;;;;;;;5040877;28;11660;-90
2022/02/27 00:32:27;;;;;;;;;11.25;6.50;;;;;;;;5044359;28;12275;-88
2022/02/27 00:34:55;;;;;;;;;6.50;4.50;;;;;;;;5054305;28;11585;-87
2022/02/27 00:37:24;;;;;;;;;5.75;5.75;;;;;;;;5043534;28;11537;-90
2022/02/27 00:39:51;;;;;;;;;7.00;7.00;;;;;;;;5046026;28;12372;-90
2022/02/27 00:42:18;;;;;;;;;9.50;9.50;;;;;;;;5044914;28;11667;-92
2022/02/27 00:44:46;;;;;;;;;12.00;4.75;;;;;;;;5044938;28;11688;-89
2022/02/27 00:47:14;;;;;;;;;9.50;6.00;;;;;;;;5045963;28;11563;-91
2022/02/27 00:49:41;;;;;;;;;8.00;8.00;;;;;;;;5036708;28;11564;-84
2022/02/27 00:52:09;;;;;;;;;8.75;8.25;;;;;;;;5039477;28;11562;-90
2022/02/27 00:54:37;;;;;;;;;4.75;4.75;;;;;;;;5042641;28;11548;-89
2022/02/27 00:57:05;;;;;;;;;8.75;8.00;;;;;;;;5042401;28;11548;-90
2022/02/27 00:59:33;;;;;;;;;9.00;6.50;;;;;;;;5042803;28;11552;-94
2022/02/27 01:02:00;;;;;;;;;8.00;5.75;;;;;;;;5041636;28;11524;-92
2022/02/27 01:04:27;;;;;;;;;6.50;6.50;;;;;;;;5045952;28;11533;-86
2022/02/27 01:06:55;;;;;;;;;7.00;7.00;;;;;;;;5042164;28;12532;-79
2022/02/27 01:09:22;;;;;;;;;9.00;6.50;;;;;;;;5042119;28;11560;-89
2022/02/27 01:11:50;;;;;;;;;4.50;4.50;;;;;;;;5032508;28;11565;-90
2022/02/27 01:14:18;;;;;;;;;8.50;5.50;;;;;;;;5041680;28;11534;-92
2022/02/27 01:16:45;;;;;;;;;5.75;5.75;;;;;;;;5042341;28;11535;-92
2022/02/27 01:19:12;;;;;;;;;9.50;7.00;;;;;;;;5042987;28;11576;-89
2022/02/27 01:21:40;;;;;;;;;5.50;5.50;;;;;;;;5040770;28;11557;-91
2022/02/27 01:24:08;;;;;;;;;8.00;8.00;;;;;;;;5041765;28;11530;-91
2022/02/27 01:26:35;;;;;;;;;7.00;5.75;;;;;;;;5042363;28;11560;-92
2022/02/27 01:29:04;;;;;;;;;9.25;9.00;;;;;;;;5040725;28;11567;-83
2022/02/27 01:31:31;;;;;;;;;12.50;11.00;;;;;;;;5038537;28;12293;-91
2022/02/27 01:33:59;;;;;;;;;12.00;12.00;;;;;;;;5040974;28;11560;-91
2022/02/27 01:36:26;;;;;;;;;24.50;24.50;;;;;;;;5029082;28;11572;-90
2022/02/27 01:38:53;;;;;;;;;19.25;17.00;;;;;;;;5041037;28;11624;-90
2022/02/27 01:41:21;;;;;;;;;19.00;15.00;;;;;;;;5041171;28;11570;-91
2022/02/27 01:43:48;;;;;;;;;13.25;12.00;;;;;;;;5043193;28;11694;-88
2022/02/27 01:46:18;;;;;;;;;7.75;7.75;;;;;;;;5041205;28;11702;-84
2022/02/27 01:48:45;;;;;;;;;9.50;8.25;;;;;;;;5042558;28;12541;-87
2022/02/27 01:51:14;;;;;;;;;9.00;9.00;;;;;;;;5040771;28;11550;-88
2022/02/27 01:53:41;;;;;;;;;5.50;5.00;;;;;;;;5042923;28;11595;-92
2022/02/27 01:56:09;;;;;;;;;8.75;8.75;;;;;;;;5044397;28;11651;-87
2022/02/27 01:58:36;;;;;;;;;9.00;6.50;;;;;;;;5046358;28;11674;-89
2022/02/27 02:01:03;;;;;;;;;6.00;6.00;;;;;;;;5044896;28;11494;-93
2022/02/27 02:03:32;;;;;;;;;9.25;7.50;;;;;;;;5045372;28;11586;-90
2022/02/27 02:05:59;;;;;;;;;10.75;9.00;;;;;;;;5046286;28;12209;-88
2022/02/27 02:08:27;;;;;;;;;11.00;9.00;;;;;;;;5045189;28;11547;-90
2022/02/27 02:10:55;;;;;;;;;8.50;8.50;;;;;;;;5040366;28;11683;-84
2022/02/27 02:13:22;;;;;;;;;9.75;7.00;;;;;;;;5046357;28;11636;-93
2022/02/27 02:15:57;;;;;;;;;5.75;4.50;;;;;;;;5045523;28;11572;-87
2022/02/27 02:18:24;;;;;;;;;4.75;2.50;;;;;;;;5045640;28;11516;-90
2022/02/27 02:20:53;;;;;;;;;7.50;5.75;;;;;;;;5043547;28;11537;-90
2022/02/27 02:23:20;;;;;;;;;8.50;4.25;;;;;;;;5045270;28;11585;-93
2022/02/27 02:25:48;;;;;;;;;5.25;5.25;;;;;;;;5044956;28;11738;-94
2022/02/27 02:28:15;;;;;;;;;5.00;4.75;;;;;;;;5046170;28;12156;-93
2022/02/27 02:30:42;;;;;;;;;7.00;4.25;;;;;;;;5043090;28;11495;-94
2022/02/27 02:33:10;;;;;;;;;8.25;5.00;;;;;;;;5045116;28;11544;-87
2022/02/27 02:35:38;;;;;;;;;3.25;1.00;;;;;;;;5042892;28;11540;-94
2022/02/27 02:38:07;;;;;;;;;4.75;4.00;;;;;;;;5045307;28;11651;-90
2022/02/27 02:40:34;;;;;;;;;4.50;3.75;;;;;;;;5045975;28;11655;-91
2022/02/27 02:43:02;;;;;;;;;5.75;5.75;;;;;;;;5043927;28;11717;-94
2022/02/27 02:45:29;;;;;;;;;5.00;3.00;;;;;;;;5045862;28;11554;-85
2022/02/27 02:47:56;;;;;;;;;5.50;5.50;;;;;;;;5044499;28;11552;-92
2022/02/27 02:50:24;;;;;;;;;4.75;4.75;;;;;;;;5045877;28;11581;-89
2022/02/27 02:52:51;;;;;;;;;6.25;4.75;;;;;;;;5046447;28;11666;-95
2022/02/27 02:55:20;;;;;;;;;7.00;3.50;;;;;;;;5048684;28;11677;-88
2022/02/27 02:57:48;;;;;;;;;6.50;4.00;;;;;;;;5047034;28;11596;-93
2022/02/27 03:00:16;;;;;;;;;0.25;0.25;;;;;;;;5043801;28;11589;-90
2022/02/27 03:02:44;;;;;;;;;4.50;4.50;;;;;;;;5046411;28;11560;-94
2022/02/27 03:05:11;;;;;;;;;5.00;5.00;;;;;;;;5044337;28;11520;-93
2022/02/27 03:07:41;;;;;;;;;4.00;4.00;;;;;;;;5044544;28;11545;-95
2022/02/27 03:10:10;;;;;;;;;4.50;2.00;;;;;;;;5043737;28;12839;-93
2022/02/27 03:12:39;;;;;;;;;3.00;3.00;;;;;;;;5043865;28;11528;-89
2022/02/27 03:15:08;;;;;;;;;7.33;5.00;;;;;;;;5046576;28;11609;-91
2022/02/27 03:17:36;;;;;;;;;5.25;4.50;;;;;;;;5042686;28;11559;-87
2022/02/27 03:20:03;;;;;;;;;6.75;5.00;;;;;;;;5044138;28;11554;-85
2022/02/27 03:22:31;;;;;;;;;4.00;4.00;;;;;;;;5042893;28;11511;-88
2022/02/27 03:24:58;;;;;;;;;5.00;5.00;;;;;;;;5052647;28;11623;-82
2022/02/27 03:27:25;;;;;;;;;4.75;4.75;;;;;;;;5055455;28;11630;-92
2022/02/27 03:29:55;;;;;;;;;2.50;2.50;;;;;;;;5044214;28;11528;-86
2022/02/27 03:32:22;;;;;;;;;2.75;1.25;;;;;;;;5043877;28;11489;-91
2022/02/27 03:34:50;;;;;;;;;5.00;5.00;;;;;;;;5043256;28;11642;-91
2022/02/27 03:37:17;;;;;;;;;6.00;6.00;;;;;;;;5044634;28;11545;-91
2022/02/27 03:39:44;;;;;;;;;3.50;3.50;;;;;;;;5043499;28;11568;-93
2022/02/27 03:42:12;;;;;;;;;5.00;5.00;;;;;;;;5043101;28;11571;-90
2022/02/27 03:44:39;;;;;;;;;6.00;4.50;;;;;;;;5043954;28;11673;-87
2022/02/27 03:47:08;;;;;;;;;2.00;2.00;;;;;;;;5043417;28;11736;-90
2022/02/27 03:49:35;;;;;;;;;5.25;4.00;;;;;;;;5038768;28;11541;-89
2022/02/27 03:52:04;;;;;;;;;8.25;4.25;;;;;;;;5034397;28;11611;-89
2022/02/27 03:54:32;;;;;;;;;5.25;2.50;;;;;;;;5042858;28;11541;-90
2022/02/27 03:56:59;;;;;;;;;5.00;5.00;;;;;;;;5045675;28;11565;-89
2022/02/27 03:59:27;;;;;;;;;4.75;4.75;;;;;;;;5039792;28;11517;-88
2022/02/27 04:01:54;;;;;;;;;5.75;4.00;;;;;;;;5041718;28;11533;-90
2022/02/27 04:04:23;;;;;;;;;5.00;5.00;;;;;;;;5043376;28;11548;-92
2022/02/27 04:06:50;;;;;;;;;5.50;4.00;;;;;;;;5043434;28;11605;-92
2022/02/27 04:09:18;;;;;;;;;7.50;6.50;;;;;;;;5042694;28;11570;-91
2022/02/27 04:11:45;;;;;;;;;5.00;5.00;;;;;;;;5042714;28;11540;-92
2022/02/27 04:14:13;;;;;;;;;8.75;7.00;;;;;;;;5041921;28;11546;-89
2022/02/27 04:16:40;;;;;;;;;9.00;8.00;;;;;;;;5044091;28;11547;-91
2022/02/27 04:19:07;;;;;;;;;5.33;5.33;;;;;;;;5037918;28;11578;-91
2022/02/27 04:21:36;;;;;;;;;9.00;6.75;;;;;;;;5042961;28;11702;-90
2022/02/27 04:24:04;;;;;;;;;6.50;5.00;;;;;;;;5042634;28;11528;-91
2022/02/27 04:26:32;;;;;;;;;8.33;8.33;;;;;;;;5042506;28;11533;-90
2022/02/27 04:28:59;;;;;;;;;12.00;12.00;;;;;;;;5054039;28;11717;-91
2022/02/27 04:31:26;;;;;;;;;15.33;14.67;;;;;;;;5039992;28;11513;-89
2022/02/27 04:33:54;;;;;;;;;13.33;13.33;;;;;;;;5043077;28;9036;-90
2022/02/27 04:36:21;;;;;;;;;12.00;9.00;;;;;;;;5040887;28;11612;-93
2022/02/27 04:38:52;;;;;;;;;27.67;25.00;;;;;;;;5043475;28;11656;-85
2022/02/27 04:41:19;;;;;;;;;21.00;18.67;;;;;;;;5038012;28;9008;-93
2022/02/27 04:43:47;;;;;;;;;20.67;19.67;;;;;;;;5041542;28;8885;-92
2022/02/27 04:46:14;;;;;;;;;44.00;42.67;;;;;;;;5043626;28;8881;-92
2022/02/27 04:48:41;;;;;;;;;32.00;29.00;;;;;;;;5041994;28;8853;-92
2022/02/27 04:51:09;;;;;;;;;12.67;11.00;;;;;;;;5043493;28;8881;-88
2022/02/27 04:53:36;;;;;;;;;14.00;12.00;;;;;;;;5041220;28;8869;-91
2022/02/27 04:56:06;;;;;;;;;10.33;8.67;;;;;;;;5043079;28;8899;-88
2022/02/27 04:58:33;;;;;;;;;8.67;7.00;;;;;;;;5041044;28;8853;-93
2022/02/27 05:01:01;;;;;;;;;4.67;4.67;;;;;;;;5042078;28;11461;-91
2022/02/27 05:03:28;;;;;;;;;17.67;10.67;;;;;;;;5042615;28;11589;-92
2022/02/27 05:05:55;;;;;;;;;11.00;11.00;;;;;;;;5040358;28;9069;-91
2022/02/27 05:08:23;;;;;;;;;14.67;11.67;;;;;;;;5041630;28;8877;-85
2022/02/27 05:10:50;;;;;;;;;6.33;6.33;;;;;;;;5041942;28;8888;-89
2022/02/27 05:13:19;;;;;;;;;12.33;9.00;;;;;;;;5042239;28;8869;-94
2022/02/27 05:15:46;;;;;;;;;6.33;4.00;;;;;;;;5040255;28;8891;-93
2022/02/27 05:18:14;;;;;;;;;5.00;5.00;;;;;;;;5040062;28;13595;-91
2022/02/27 05:20:41;;;;;;;;;4.33;4.33;;;;;;;;5042049;28;8849;-93
2022/02/27 05:23:08;;;;;;;;;5.00;5.00;;;;;;;;5037639;28;11711;-89
2022/02/27 05:25:35;;;;;;;;;15.67;12.00;;;;;;;;5040040;28;11582;-89
2022/02/27 05:28:03;;;;;;;;;14.67;11.33;;;;;;;;5041677;28;8849;-88
2022/02/27 05:30:32;;;;;;;;;7.33;7.33;;;;;;;;5041569;28;8834;-93
2022/02/27 05:32:59;;;;;;;;;8.33;8.33;;;;;;;;5042738;28;8857;-93
2022/02/27 05:35:26;;;;;;;;;9.33;9.33;;;;;;;;5040204;28;8979;-92
2022/02/27 05:37:53;;;;;;;;;12.00;9.00;;;;;;;;5040678;28;8922;-92
2022/02/27 05:40:21;;;;;;;;;17.00;13.33;;;;;;;;5039936;28;8871;-90
2022/02/27 05:42:48;;;;;;;;;8.00;8.00;;;;;;;;5041062;28;8883;-92
2022/02/27 05:45:16;;;;;;;;;8.00;8.00;;;;;;;;5041310;28;11542;-94
2022/02/27 05:47:44;;;;;;;;;7.00;7.00;;;;;;;;5042826;28;8889;-93
2022/02/27 05:50:12;;;;;;;;;7.67;7.00;;;;;;;;5037370;28;11545;-92
2022/02/27 05:52:39;;;;;;;;;6.67;6.33;;;;;;;;5032395;28;11517;-88
2022/02/27 05:55:07;;;;;;;;;5.00;5.00;;;;;;;;5037522;28;10987;-85
2022/02/27 05:57:35;;;;;;;;;3.00;2.00;;;;;;;;5039919;28;8861;-87
2022/02/27 06:00:03;;;;;;;;;5.00;5.00;;;;;;;;5042541;28;11538;-93
2022/02/27 06:02:30;;;;;;;;;5.67;5.00;;;;;;;;5040321;28;8837;-86
2022/02/27 06:04:59;;;;;;;;;8.00;8.00;;;;;;;;5041196;28;8938;-88
2022/02/27 06:07:27;;;;;;;;;9.33;8.00;;;;;;;;5041383;28;8887;-93
2022/02/27 06:09:54;;;;;;;;;8.67;8.67;;;;;;;;5041342;28;8915;-91
2022/02/27 06:12:22;;;;;;;;;4.33;4.33;;;;;;;;5041875;28;8869;-89
2022/02/27 06:14:49;;;;;;;;;7.33;7.33;;;;;;;;5040874;28;8879;-88
2022/02/27 06:17:16;;;;;;;;;7.00;7.00;;;;;;;;5041275;28;8885;-89
2022/02/27 06:19:44;;;;;;;;;4.00;4.00;;;;;;;;5034164;28;9004;-89
2022/02/27 06:22:12;;;;;;;;;8.00;8.00;;;;;;;;5050150;28;11708;-88
2022/02/27 06:24:40;;;;;;;;;7.00;7.00;;;;;;;;5047275;28;8955;-91
2022/02/27 06:27:07;;;;;;;;;10.00;9.33;;;;;;;;5051567;28;8898;-91
2022/02/27 06:29:35;;;;;;;;;8.00;8.00;;;;;;;;5041605;28;8869;-90
2022/02/27 06:32:02;;;;;;;;;11.00;11.00;;;;;;;;5040843;28;8812;-91
2022/02/27 06:34:29;;;;;;;;;11.67;11.00;;;;;;;;5040952;28;8857;-92
2022/02/27 06:36:57;;;;;;;;;8.33;8.33;;;;;;;;5040740;28;8873;-89
2022/02/27 06:39:25;;;;;;;;;4.33;4.33;;;;;;;;5039837;28;8877;-90
2022/02/27 06:41:53;;;;;;;;;7.00;7.00;;;;;;;;5045741;28;9004;-89
2022/02/27 06:44:20;;;;;;;;;4.00;4.00;;;;;;;;5063636;28;8962;-88
2022/02/27 06:46:48;;;;;;;;;9.33;9.33;;;;;;;;5044852;28;8869;-90
2022/02/27 06:49:15;;;;;;;;;5.67;5.67;;;;;;;;5027075;28;8891;-91
2022/02/27 06:51:42;;;;;;;;;4.00;4.00;;;;;;;;5045326;28;8876;-90
2022/02/27 06:54:10;;;;;;;;;4.00;4.00;;;;;;;;5052930;28;8992;-87
2022/02/27 06:56:40;;;;;;;;;6.33;6.33;;;;;;;;5054915;28;8992;-90
2022/02/27 06:59:07;;;;;;;;;8.67;8.67;;;;;;;;5044240;28;8889;-88
2022/02/27 07:01:35;;;;;;;;;14.00;14.00;;;;;;;;5045543;28;8865;-88
2022/02/27 07:04:02;;;;;;;;;9.00;9.00;;;;;;;;5044284;28;8888;-85
2022/02/27 07:06:29;;;;;;;;;8.00;8.00;;;;;;;;5044158;28;8857;-83
2022/02/27 07:08:57;;;;;;;;;10.00;10.00;;;;;;;;5043057;28;8881;-86
2022/02/27 07:11:24;;;;;;;;;7.67;7.67;;;;;;;;5043631;28;8872;-88
2022/02/27 07:13:53;;;;;;;;;4.00;4.00;;;;;;;;5043661;28;8865;-90
2022/02/27 07:16:22;;;;;;;;;6.33;6.33;;;;;;;;5043369;28;8869;-91
2022/02/27 07:18:50;;;;;;;;;8.00;8.00;;;;;;;;5045403;28;9644;-86
2022/02/27 07:21:17;;;;;;;;;2.67;2.67;;;;;;;;5042857;28;8865;-91
2022/02/27 07:23:45;;;;;;;;;1.00;1.00;;;;;;;;5040651;28;8860;-87
2022/02/27 07:26:12;;;;;;;;;1.00;1.00;;;;;;;;5040781;28;8865;-87
2022/02/27 07:28:39;;;;;;;;;4.00;4.00;;;;;;;;5044022;28;8950;-88
2022/02/27 07:31:08;;;;;;;;;4.00;4.00;;;;;;;;5032882;28;8818;-89
2022/02/27 07:33:35;;;;;;;;;2.00;2.00;;;;;;;;5043362;28;8899;-88
2022/02/27 07:36:03;;;;;;;;;5.00;2.67;;;;;;;;5043875;28;8861;-89
2022/02/27 07:38:30;;;;;;;;;1.33;1.00;;;;;;;;5041620;28;11661;-92
2022/02/27 07:40:57;;;;;;;;;1.00;1.00;;;;;;;;5044769;28;11548;-92
2022/02/27 07:43:24;;;;;;;;;2.00;2.00;;;;;;;;5043004;28;11530;-87
2022/02/27 07:45:52;;;;;;;;;7.33;4.00;;;;;;;;5044790;28;11541;-84
2022/02/27 07:48:21;;;;;;;;;7.00;5.00;;;;;;;;5041885;28;11637;-86
2022/02/27 07:50:48;;;;;;;;;2.67;2.67;;;;;;;;5039834;28;11596;-88
2022/02/27 07:53:16;;;;;;;;;4.00;4.00;;;;;;;;5042831;28;11521;-88
2022/02/27 07:55:43;;;;;;;;;2.00;2.00;;;;;;;;5042975;28;11545;-90
2022/02/27 07:58:13;;;;;;;;;4.25;4.25;;;;;;;;5044403;28;11627;-88
2022/02/27 08:00:40;;;;;;;;;4.00;4.00;;;;;;;;5041301;28;11457;-85
2022/02/27 08:03:09;;;;;;;;;5.00;2.00;;;;;;;;5042556;28;11701;-87
2022/02/27 08:05:38;;;;;;;;;4.25;4.25;;;;;;;;5043818;28;11561;-83
2022/02/27 08:08:06;;;;;;;;;7.00;4.25;;;;;;;;5026340;28;11573;-83
2022/02/27 08:10:33;;;;;;;;;2.00;1.00;;;;;;;;5042618;28;11578;-81
2022/02/27 08:13:00;;;;;;;;;2.00;2.00;;;;;;;;5039869;28;11629;-87
2022/02/27 08:15:29;;;;;;;;;4.75;3.00;;;;;;;;5050136;28;11558;-80
2022/02/27 08:17:56;;;;;;;;;5.00;5.00;;;;;;;;5039213;28;11563;-85
2022/02/27 08:20:24;;;;;;;;;6.00;4.25;;;;;;;;5024393;28;12113;-84
2022/02/27 08:22:53;;;;;;;;;8.25;4.00;;;;;;;;5041816;28;11542;-84
2022/02/27 08:25:20;;;;;;;;;5.50;4.00;;;;;;;;5042472;28;11525;-84
2022/02/27 08:27:48;;;;;;;;;8.00;4.00;;;;;;;;5040313;28;11628;-81
2022/02/27 08:30:15;;;;;;;;;4.00;4.00;;;;;;;;5039199;28;11581;-81
2022/02/27 08:32:42;;;;;;;;;4.00;4.00;;;;;;;;5041475;28;11560;-81
2022/02/27 08:35:10;;;;;;;;;5.00;3.00;;;;;;;;5040517;28;11564;-81
2022/02/27 08:37:37;;;;;;;;;5.50;4.50;;;;;;;;5041878;28;11581;-82
2022/02/27 08:40:08;;;;;;;;;5.50;5.00;;;;;;;;5041545;28;11577;-80
2022/02/27 08:42:35;;;;;;;;;11.25;9.00;;;;;;;;5041698;28;11585;-80
2022/02/27 08:45:03;;;;;;;;;8.75;5.50;;;;;;;;5023262;28;11693;-77
2022/02/27 08:47:30;;;;;;;;;5.00;5.00;;;;;;;;5039635;28;11697;-73
2022/02/27 08:49:57;;;;;;;;;7.50;7.50;;;;;;;;5040476;28;11662;-72
2022/02/27 08:52:25;;;;;;;;;5.75;5.00;;;;;;;;5039517;28;11549;-73
2022/02/27 08:54:52;;;;;;;;;5.00;4.00;;;;;;;;5041248;28;11559;-73
2022/02/27 08:57:21;;;;;;;;;4.00;4.00;;;;;;;;5038861;28;11538;-73
2022/02/27 08:59:48;;;;;;;;;3.00;3.00;;;;;;;;5041194;28;11681;-75
2022/02/27 09:02:15;;;;;;;;;1.00;1.00;;;;;;;;5037843;28;11511;-72
2022/02/27 09:04:44;;;;;;;;;2.00;2.00;;;;;;;;5041891;28;12215;-71
2022/02/27 09:07:11;;;;;;;;;5.00;3.00;;;;;;;;5040312;28;12117;-72
2022/02/27 09:09:39;;;;;;;;;4.00;4.00;;;;;;;;5041608;28;11680;-72
2022/02/27 09:12:08;;;;;;;;;5.25;4.00;;;;;;;;5039710;28;11574;-73
2022/02/27 09:14:37;;;;;;;;;2.00;2.00;;;;;;;;5039602;28;11526;-73
2022/02/27 09:17:05;;;;;;;;;4.75;4.75;;;;;;;;5037470;28;11548;-74
2022/02/27 09:19:32;;;;;;;;;1.75;1.25;;;;;;;;5040288;28;11549;-74
2022/02/27 09:22:00;;;;;;;;;1.00;1.00;;;;;;;;5039721;28;11514;-74
2022/02/27 09:24:27;;;;;;;;;2.00;2.00;;;;;;;;5041369;28;11479;-75
2022/02/27 09:26:55;;;;;;;;;2.50;2.50;;;;;;;;5037821;28;11561;-75
2022/02/27 09:29:22;;;;;;;;;4.50;2.00;;;;;;;;5039971;28;11485;-74
2022/02/27 09:31:51;;;;;;;;;2.00;2.00;;;;;;;;5038738;28;12230;-73
2022/02/27 09:34:18;;;;;;;;;2.00;2.00;;;;;;;;5039757;28;11484;-75
2022/02/27 09:36:45;;;;;;;;;2.00;2.00;;;;;;;;5034133;28;11540;-75
2022/02/27 09:39:12;;;;;;;;;1.00;1.00;;;;;;;;5038164;28;11477;-75
2022/02/27 09:41:40;;;;;;;;;1.50;1.50;;;;;;;;5039398;28;11463;-75
2022/02/27 09:44:08;;;;;;;;;2.75;1.50;;;;;;;;5040655;28;11467;-77
2022/02/27 09:46:37;;;;;;;;;1.00;1.00;;;;;;;;5039097;28;11442;-74
2022/02/27 09:49:06;;;;;;;;;2.00;1.00;;;;;;;;5040129;28;11619;-75
2022/02/27 09:51:34;;;;;;;;;1.50;1.50;;;;;;;;5039895;28;11596;-76
2022/02/27 09:54:03;;;;;;;;;2.75;1.50;;;;;;;;5040081;28;11469;-74
2022/02/27 09:56:30;;;;;;;;;2.00;2.00;;;;;;;;5040994;28;11491;-74
2022/02/27 09:58:57;;;;;;;;;2.00;2.00;;;;;;;;5040195;28;11510;-74
2022/02/27 10:01:25;;;;;;;;;1.75;1.75;;;;;;;;5040320;28;11193;-75
2022/02/27 10:03:52;;;;;;;;;1.25;1.25;;;;;;;;5040271;28;11221;-77
2022/02/27 10:06:21;;;;;;;;;3.50;1.75;;;;;;;;5038972;28;11875;-75
2022/02/27 10:08:57;;;;;;;;;0.00;0.00;;;;;;;;5040011;28;11172;-76
2022/02/27 10:11:25;;;;;;;;;2.50;1.00;;;;;;;;5026802;28;10937;-79
2022/02/27 10:13:54;;;;;;;;;4.00;1.00;;;;;;;;5039456;28;11016;-76
2022/02/27 10:16:23;;;;;;;;;2.00;2.00;;;;;;;;5039247;28;10841;-76
2022/02/27 10:18:52;;;;;;;;;1.00;1.00;;;;;;;;5044387;28;11831;-76
2022/02/27 10:21:36;;;;;;;;;1.00;1.00;;;;;;;;5044352;28;10897;-75
2022/02/27 10:24:06;;;;;;;;;1.00;1.00;;;;;;;;5042440;28;10698;-75
2022/02/27 10:26:35;;;;;;;;;5.25;3.00;;;;;;;;5044795;28;10838;-75
2022/02/27 10:29:10;;;;;;;;;6.00;2.00;;;;;;;;5040165;28;10700;-77
2022/02/27 10:31:38;;;;;;;;;2.75;1.75;;;;;;;;5043844;28;10666;-75
2022/02/27 10:34:17;;;;;;;;;4.50;4.50;;;;;;;;5040820;28;11404;-76
2022/02/27 10:37:01;;;;;;;;;1.00;1.00;;;;;;;;5042373;28;10826;-76
2022/02/27 10:39:39;;;;;;;;;2.00;2.00;;;;;;;;5044274;28;11760;-76
2022/02/27 10:42:12;;;;;;;;;3.00;3.00;;;;;;;;5041813;28;10401;-76
2022/02/27 10:44:40;;;;;;;;;2.00;2.00;;;;;;;;5035086;28;10511;-75
2022/02/27 10:47:16;;;;;;;;;2.00;2.00;;;;;;;;5042437;28;10407;-78
2022/02/27 10:49:44;;;;;;;;;1.00;1.00;;;;;;;;5041579;28;10493;-76
2022/02/27 10:52:17;;;;;;;;;2.00;2.00;;;;;;;;5043190;28;10237;-76
2022/02/27 10:54:46;;;;;;;;;1.75;1.75;;;;;;;;5043298;28;10392;-73
2022/02/27 10:57:27;;;;;;;;;3.00;2.00;;;;;;;;5043461;28;10409;-75
2022/02/27 10:59:55;;;;;;;;;1.00;1.00;;;;;;;;5043616;28;10408;-76
2022/02/27 11:02:27;;;;;;;;;2.00;2.00;;;;;;;;5039985;28;10412;-74
2022/02/27 11:04:55;;;;;;;;;1.75;1.75;;;;;;;;5041618;28;10168;-75
2022/02/27 11:07:24;;;;;;;;;1.00;1.00;;;;;;;;5040363;28;10189;-74
2022/02/27 11:09:52;;;;;;;;;1.00;1.00;;;;;;;;5042515;28;10024;-75
2022/02/27 11:12:21;;;;;;;;;1.50;1.00;;;;;;;;5042174;28;10104;-74
2022/02/27 11:14:50;;;;;;;;;0.00;0.00;;;;;;;;5041163;28;9863;-74
2022/02/27 11:17:18;;;;;;;;;1.25;1.00;;;;;;;;5041039;28;10691;-75
2022/02/27 11:19:45;;;;;;;;;2.25;2.25;;;;;;;;5040827;28;9956;-75
2022/02/27 11:22:13;;;;;;;;;2.50;2.50;;;;;;;;5041975;28;9910;-74
2022/02/27 11:24:42;;;;;;;;;0.75;0.75;;;;;;;;5042658;28;10698;-75
2022/02/27 11:27:10;;;;;;;;;2.00;1.00;;;;;;;;5040365;28;9780;-75
2022/02/27 11:29:38;;;;;;;;;2.50;2.00;;;;;;;;5041105;28;9777;-76
2022/02/27 11:32:06;;;;;;;;;1.00;1.00;;;;;;;;5041778;28;9744;-76
2022/02/27 11:34:41;;;;;;;;;2.25;1.00;;;;;;;;5040851;28;9621;-75
2022/02/27 11:37:09;;;;;;;;;2.00;2.00;;;;;;;;5042929;28;9657;-73
2022/02/27 11:42:50;;;;;;;;;2.00;2.00;;;;;;;;5032635;28;9754;-73
2022/02/27 11:45:22;;;;;;;;;1.00;1.00;;;;;;;;5043505;28;9647;-72
2022/02/27 11:47:53;;;;;;;;;1.00;1.00;;;;;;;;5039814;28;9546;-74
2022/02/27 11:50:26;;;;;;;;;1.00;1.00;;;;;;;;5041945;28;9591;-74
2022/02/27 11:52:53;;;;;;;;;2.00;2.00;;;;;;;;5041159;28;9623;-73
2022/02/27 11:55:42;;;;;;;;;1.25;1.25;;;;;;;;5042402;28;9602;-75
2022/02/27 11:58:21;;;;;;;;;2.00;2.00;;;;;;;;5038817;28;9575;-76
2022/02/27 12:00:49;;;;;;;;;2.00;2.00;;;;;;;;5034070;28;9533;-74
2022/02/27 12:03:40;;;;;;;;;3.00;0.00;;;;;;;;5041619;28;10334;-75
2022/02/27 12:06:09;;;;;;;;;2.00;2.00;;;;;;;;5038057;28;9347;-79
2022/02/27 12:08:41;;;;;;;;;1.00;1.00;;;;;;;;5040998;28;9600;-76
2022/02/27 12:11:39;;;;;;;;;3.00;3.00;;;;;;;;5041418;28;9468;-76
2022/02/27 12:14:09;;;;;;;;;2.00;2.00;;;;;;;;5039919;28;10226;-76
2022/02/27 12:16:39;;;;;;;;;1.33;1.33;;;;;;;;5041177;28;9334;-76
2022/02/27 12:19:24;;;;;;;;;3.00;3.00;;;;;;;;5042149;28;9302;-77
2022/02/27 12:21:52;;;;;;;;;1.00;1.00;;;;;;;;5040723;28;9329;-81
2022/02/27 12:24:26;;;;;;;;;4.00;2.00;;;;;;;;5042756;28;9257;-77
2022/02/27 12:26:55;;;;;;;;;2.00;2.00;;;;;;;;5039030;28;9872;-77
2022/02/27 12:29:33;;;;;;;;;2.00;2.00;;;;;;;;5040002;28;9022;-79
2022/02/27 12:32:06;;;;;;;;;2.00;2.00;;;;;;;;5040247;28;8986;-79
2022/02/27 12:34:35;;;;;;;;;3.00;3.00;;;;;;;;5039206;28;10032;-77
2022/02/27 12:37:04;;;;;;;;;2.00;2.00;;;;;;;;5041724;28;9222;-83
2022/02/27 12:39:34;;;;;;;;;3.33;2.00;;;;;;;;5040933;28;9213;-82
2022/02/27 12:42:01;;;;;;;;;3.00;3.00;;;;;;;;5038892;28;9322;-80
2022/02/27 12:44:32;;;;;;;;;2.00;2.00;;;;;;;;5040714;28;9214;-78
2022/02/27 12:47:01;;;;;;;;;2.00;2.00;;;;;;;;5040757;28;9286;-76
2022/02/27 12:52:16;;;;;;;;;2.00;2.00;;;;;;;;5030661;28;9663;-79
2022/02/27 12:54:45;;;;;;;;;4.00;3.00;;;;;;;;5042667;28;9440;-77
2022/02/27 12:57:13;;;;;;;;;3.00;3.00;;;;;;;;5038135;28;9359;-78
2022/02/27 12:59:44;;;;;;;;;4.00;2.67;;;;;;;;5042541;28;9964;-78
2022/02/27 13:02:15;;;;;;;;;3.00;2.67;;;;;;;;5038645;28;9346;-76
2022/02/27 13:04:43;;;;;;;;;3.00;1.67;;;;;;;;5040495;28;9351;-78
2022/02/27 13:07:12;;;;;;;;;3.25;3.25;;;;;;;;5041593;28;9431;-77
2022/02/27 13:09:41;;;;;;;;;1.00;1.00;;;;;;;;5038972;28;9501;-77
2022/02/27 13:12:11;;;;;;;;;3.00;3.00;;;;;;;;5041574;28;9218;-82
2022/02/27 13:14:39;;;;;;;;;3.00;3.00;;;;;;;;5039816;28;9292;-78
2022/02/27 13:17:14;;;;;;;;;4.00;3.00;;;;;;;;5041028;28;9325;-80
2022/02/27 13:19:41;;;;;;;;;5.00;2.00;;;;;;;;5039403;28;9213;-79
2022/02/27 13:22:10;;;;;;;;;2.00;2.00;;;;;;;;5040582;28;9148;-77
2022/02/27 13:24:41;;;;;;;;;3.00;3.00;;;;;;;;5041570;28;8984;-78
2022/02/27 13:27:10;;;;;;;;;0.00;0.00;;;;;;;;5037341;28;9069;-79
2022/02/27 13:29:55;;;;;;;;;2.25;2.25;;;;;;;;5039188;28;8857;-84
2022/02/27 13:32:25;;;;;;;;;3.00;3.00;;;;;;;;5039182;28;8827;-78
2022/02/27 13:34:56;;;;;;;;;3.00;3.00;;;;;;;;5040954;28;8862;-80
2022/02/27 13:37:26;;;;;;;;;3.00;3.00;;;;;;;;5040923;28;8934;-79
2022/02/27 13:39:59;;;;;;;;;4.50;2.75;;;;;;;;5038544;28;8881;-84
2022/02/27 13:42:28;;;;;;;;;5.00;3.25;;;;;;;;5041230;28;8873;-86
2022/02/27 13:44:56;;;;;;;;;5.00;3.33;;;;;;;;5045491;28;8919;-81
2022/02/27 13:47:26;;;;;;;;;3.00;3.00;;;;;;;;5042297;28;8984;-79
2022/02/27 13:49:53;;;;;;;;;2.50;2.50;;;;;;;;5038940;28;9691;-82
2022/02/27 13:52:22;;;;;;;;;2.00;2.00;;;;;;;;5043704;28;10163;-84
2022/02/27 13:54:50;;;;;;;;;3.25;3.25;;;;;;;;5044628;28;8895;-87
2022/02/27 13:57:18;;;;;;;;;5.00;3.25;;;;;;;;5047780;28;8916;-80
2022/02/27 13:59:49;;;;;;;;;3.50;3.50;;;;;;;;5045784;28;8858;-81
2022/02/27 14:02:33;;;;;;;;;2.00;2.00;;;;;;;;5032523;28;8833;-82
2022/02/27 14:05:08;;;;;;;;;3.25;3.25;;;;;;;;5044022;28;8972;-80
2022/02/27 14:07:35;;;;;;;;;3.00;3.00;;;;;;;;5071878;28;8893;-81
2022/02/27 14:10:03;;;;;;;;;3.50;3.50;;;;;;;;5039491;28;8877;-80
2022/02/27 14:12:31;;;;;;;;;4.50;4.50;;;;;;;;5030879;28;8867;-79
2022/02/27 14:14:58;;;;;;;;;2.25;2.25;;;;;;;;5042954;28;9719;-79
2022/02/27 14:17:25;;;;;;;;;1.00;1.00;;;;;;;;5043862;28;8881;-79
2022/02/27 14:19:55;;;;;;;;;6.00;4.00;;;;;;;;5041788;28;8928;-79
2022/02/27 14:22:22;;;;;;;;;2.00;2.00;;;;;;;;5041451;28;9437;-79
2022/02/27 14:24:52;;;;;;;;;2.00;2.00;;;;;;;;5043577;28;8905;-78
2022/02/27 14:27:21;;;;;;;;;2.00;2.00;;;;;;;;5043605;28;8970;-80
2022/02/27 14:29:49;;;;;;;;;5.75;4.00;;;;;;;;5040060;28;9513;-81
2022/02/27 14:32:27;;;;;;;;;3.25;2.00;;;;;;;;5039639;28;8825;-79
2022/02/27 14:34:58;;;;;;;;;3.00;3.00;;;;;;;;5035567;28;8848;-79
2022/02/27 14:37:26;;;;;;;;;2.25;2.25;;;;;;;;5042835;28;8869;-78
2022/02/27 14:40:06;;;;;;;;;3.00;3.00;;;;;;;;5043110;28;8897;-79
2022/02/27 14:42:34;;;;;;;;;3.50;3.50;;;;;;;;5034021;28;8975;-79
2022/02/27 14:45:02;;;;;;;;;3.50;2.25;;;;;;;;5041896;28;8873;-80
2022/02/27 14:47:29;;;;;;;;;3.00;3.00;;;;;;;;5040070;28;8853;-77
2022/02/27 14:49:58;;;;;;;;;4.50;4.50;;;;;;;;5014396;28;8893;-78
2022/02/27 14:52:25;;;;;;;;;4.00;4.00;;;;;;;;5040290;28;8857;-79
2022/02/27 14:54:53;;;;;;;;;6.00;4.50;;;;;;;;5040821;28;8869;-79
2022/02/27 14:57:20;;;;;;;;;2.25;2.25;;;;;;;;5036596;28;8888;-78
2022/02/27 14:59:47;;;;;;;;;2.75;2.75;;;;;;;;5032196;28;9277;-77